Time;durP1;ratioP1;P1;durP2;ratioP2;P2;SDS_P1;SDS_P2;PMS_P1;PMS_P2;Temp;Humidity;BMP_temperature;BMP_pressure;BME280_temperature;BME280_humidity;BME280_pressure;Samples;Min_cycle;Max_cycle;Signal;HPM_P1;HPM_P2
2023/07/08 00:02:09;;;;;;;;;13.75;12.75;;;;;;;;6490091;39;8846;-54
2023/07/08 00:08:16;;;;;;;;;14.00;12.50;;;;;;;;6490076;47;9008;-56
2023/07/08 00:14:18;;;;;;;;;13.25;13.25;;;;;;;;6490991;39;8858;-54
2023/07/08 00:20:30;;;;;;;;;15.00;15.00;;;;;;;;6492209;39;8865;-55
2023/07/08 00:26:32;;;;;;;;;12.50;12.50;;;;;;;;6492996;39;8870;-59
2023/07/08 00:32:41;;;;;;;;;16.00;14.00;;;;;;;;6492063;39;8852;-56
2023/07/08 00:38:47;;;;;;;;;14.00;12.25;;;;;;;;6491473;46;8881;-55
2023/07/08 00:44:49;;;;;;;;;16.00;11.00;;;;;;;;6492657;46;8925;-56
2023/07/08 00:50:52;;;;;;;;;11.75;11.75;;;;;;;;6492338;39;8905;-53
2023/07/08 00:57:01;;;;;;;;;15.75;14.00;;;;;;;;6491661;46;8913;-54
2023/07/08 01:03:04;;;;;;;;;14.25;13.75;;;;;;;;6493356;46;8845;-55
2023/07/08 01:09:11;;;;;;;;;14.50;14.00;;;;;;;;6492035;39;8898;-53
2023/07/08 01:15:15;;;;;;;;;16.00;12.50;;;;;;;;6492361;39;8820;-56
2023/07/08 01:21:34;;;;;;;;;11.25;11.25;;;;;;;;6491073;39;8929;-55
2023/07/08 01:27:42;;;;;;;;;15.00;14.25;;;;;;;;6491270;39;8943;-53
2023/07/08 01:33:45;;;;;;;;;12.00;12.00;;;;;;;;6492534;46;8996;-57
2023/07/08 01:39:48;;;;;;;;;15.75;15.00;;;;;;;;6491248;31;8905;-54
2023/07/08 01:45:52;;;;;;;;;16.00;14.33;;;;;;;;6491779;46;8889;-56
2023/07/08 01:51:59;;;;;;;;;18.00;16.25;;;;;;;;6491382;46;8890;-55
2023/07/08 01:58:01;;;;;;;;;15.25;15.25;;;;;;;;6490346;39;8880;-55
2023/07/08 02:04:04;;;;;;;;;15.33;15.00;;;;;;;;6490572;46;8878;-54
2023/07/08 02:10:07;;;;;;;;;15.75;15.75;;;;;;;;6491625;39;9157;-54
2023/07/08 02:16:10;;;;;;;;;21.33;16.67;;;;;;;;6492389;39;8894;-54
2023/07/08 02:22:13;;;;;;;;;19.67;16.33;;;;;;;;6492211;36;8923;-54
2023/07/08 02:28:17;;;;;;;;;16.50;15.75;;;;;;;;6491427;39;9482;-54
2023/07/08 02:34:19;;;;;;;;;15.00;15.00;;;;;;;;6491853;46;8913;-54
2023/07/08 02:40:22;;;;;;;;;13.75;13.25;;;;;;;;6490178;46;9060;-55
2023/07/08 02:46:26;;;;;;;;;16.50;15.00;;;;;;;;6491373;39;8861;-54
2023/07/08 02:52:28;;;;;;;;;19.33;17.67;;;;;;;;6491290;39;8860;-54
2023/07/08 02:58:31;;;;;;;;;16.25;16.25;;;;;;;;6490637;39;9120;-54
2023/07/08 03:04:39;;;;;;;;;16.00;15.00;;;;;;;;6491220;39;8883;-55
2023/07/08 03:10:53;;;;;;;;;17.00;15.50;;;;;;;;6491469;39;8897;-57
2023/07/08 03:16:56;;;;;;;;;18.67;17.00;;;;;;;;6491507;39;8915;-56
2023/07/08 03:23:02;;;;;;;;;16.75;16.50;;;;;;;;6491265;47;8976;-56
2023/07/08 03:29:05;;;;;;;;;16.50;14.00;;;;;;;;6491447;39;9586;-52
2023/07/08 03:35:09;;;;;;;;;15.50;14.25;;;;;;;;6491593;39;8917;-56
2023/07/08 03:41:15;;;;;;;;;16.00;14.00;;;;;;;;6489963;47;8913;-56
2023/07/08 03:47:17;;;;;;;;;19.50;14.00;;;;;;;;6489594;47;8826;-54
2023/07/08 03:53:24;;;;;;;;;16.00;16.00;;;;;;;;6492738;39;9027;-55
2023/07/08 03:59:28;;;;;;;;;17.25;15.50;;;;;;;;6492126;31;8989;-54
2023/07/08 04:05:33;;;;;;;;;12.75;12.50;;;;;;;;6492981;39;8855;-54
2023/07/08 04:11:36;;;;;;;;;15.00;13.00;;;;;;;;6492165;46;8900;-58
2023/07/08 04:17:48;;;;;;;;;12.25;12.25;;;;;;;;6491705;46;9029;-58
2023/07/08 06:30:26;;;;;;;;;13.33;12.67;;;;;;;;6492582;39;9017;-56
2023/07/08 06:36:28;;;;;;;;;11.00;11.00;;;;;;;;6489558;39;8943;-58
2023/07/08 06:42:31;;;;;;;;;6.75;6.75;;;;;;;;6491280;31;8889;-54
2023/07/08 06:48:46;;;;;;;;;6.50;6.50;;;;;;;;6488705;39;8888;-57
2023/07/08 06:54:48;;;;;;;;;11.50;9.75;;;;;;;;6489922;39;9461;-58
2023/07/08 07:00:51;;;;;;;;;10.00;8.00;;;;;;;;6491172;39;9001;-56
2023/07/08 07:06:53;;;;;;;;;6.75;6.75;;;;;;;;6489261;31;8920;-56
2023/07/08 07:12:59;;;;;;;;;9.00;9.00;;;;;;;;6491216;39;8865;-54
2023/07/08 07:19:02;;;;;;;;;8.00;8.00;;;;;;;;6489657;39;9722;-57
2023/07/08 07:25:05;;;;;;;;;6.75;6.75;;;;;;;;6491119;39;8876;-54
2023/07/08 07:31:07;;;;;;;;;6.75;6.75;;;;;;;;6490954;39;8866;-56
2023/07/08 07:37:15;;;;;;;;;6.00;6.00;;;;;;;;6490911;31;9015;-59
2023/07/08 07:43:18;;;;;;;;;7.50;6.25;;;;;;;;6491389;46;8820;-53
2023/07/08 07:49:22;;;;;;;;;8.50;7.50;;;;;;;;6492143;46;8849;-56
2023/07/08 07:55:26;;;;;;;;;11.75;8.75;;;;;;;;6490970;31;8926;-55
2023/07/08 08:01:28;;;;;;;;;8.25;8.25;;;;;;;;6491010;46;8901;-58
2023/07/08 08:07:31;;;;;;;;;6.75;6.75;;;;;;;;6489157;31;8904;-55
2023/07/08 08:13:33;;;;;;;;;9.25;8.25;;;;;;;;6490485;39;8861;-55
2023/07/08 08:19:37;;;;;;;;;9.00;9.00;;;;;;;;6489651;39;8917;-58
2023/07/08 08:25:39;;;;;;;;;6.00;6.00;;;;;;;;6490299;39;8841;-57
2023/07/08 08:31:42;;;;;;;;;11.50;8.75;;;;;;;;6491233;31;8889;-56
2023/07/08 08:37:46;;;;;;;;;8.25;7.00;;;;;;;;6490460;39;8996;-61
2023/07/08 08:43:50;;;;;;;;;10.50;6.75;;;;;;;;6494083;36;8958;-58
2023/07/08 08:50:10;;;;;;;;;7.75;7.50;;;;;;;;6489645;46;8877;-58
2023/07/08 08:56:23;;;;;;;;;5.50;5.50;;;;;;;;6488897;46;8943;-55
2023/07/08 09:02:52;;;;;;;;;9.75;8.75;;;;;;;;6490673;31;8915;-56
2023/07/08 09:09:00;;;;;;;;;6.25;6.25;;;;;;;;6489271;39;8906;-55
2023/07/08 09:15:13;;;;;;;;;8.00;8.00;;;;;;;;6489993;39;8910;-55
2023/07/08 09:21:21;;;;;;;;;9.00;9.00;;;;;;;;6489207;39;8887;-57
2023/07/08 09:27:23;;;;;;;;;7.75;7.75;;;;;;;;6489326;46;8884;-55
2023/07/08 09:33:27;;;;;;;;;8.50;8.00;;;;;;;;6488840;39;8859;-58
2023/07/08 09:39:35;;;;;;;;;9.00;9.00;;;;;;;;6489947;31;8924;-58
2023/07/08 09:45:47;;;;;;;;;9.50;8.75;;;;;;;;6489743;46;8966;-57
2023/07/08 09:51:51;;;;;;;;;7.00;6.50;;;;;;;;6489547;39;8948;-58
2023/07/08 09:58:01;;;;;;;;;8.00;7.00;;;;;;;;6490689;39;8981;-55
2023/07/08 10:04:06;;;;;;;;;7.00;6.75;;;;;;;;6488723;46;8998;-54
2023/07/08 10:10:14;;;;;;;;;10.00;10.00;;;;;;;;6488249;39;8871;-53
2023/07/08 10:16:29;;;;;;;;;11.00;10.00;;;;;;;;6488904;39;9095;-55
2023/07/08 10:22:32;;;;;;;;;7.00;7.00;;;;;;;;6488551;46;8839;-58
2023/07/08 10:28:46;;;;;;;;;7.50;7.50;;;;;;;;6495922;36;8867;-57
2023/07/08 10:34:57;;;;;;;;;8.75;8.00;;;;;;;;6488774;39;8935;-58
2023/07/08 10:41:21;;;;;;;;;7.75;7.75;;;;;;;;6489165;39;8866;-57
2023/07/08 10:47:33;;;;;;;;;8.50;8.00;;;;;;;;6488785;46;8966;-56
2023/07/08 10:53:49;;;;;;;;;7.75;7.75;;;;;;;;6488511;39;8903;-56
2023/07/08 11:00:02;;;;;;;;;4.50;4.25;;;;;;;;6489167;39;9559;-56
2023/07/08 11:06:48;;;;;;;;;8.75;8.75;;;;;;;;6488208;47;8867;-57
2023/07/08 11:13:15;;;;;;;;;8.25;8.25;;;;;;;;6487665;46;8852;-56
2023/07/08 11:19:27;;;;;;;;;10.50;9.00;;;;;;;;6487867;39;8899;-56
2023/07/08 11:25:32;;;;;;;;;7.50;7.50;;;;;;;;6487849;47;8887;-52
2023/07/08 11:31:34;;;;;;;;;6.75;6.75;;;;;;;;6488308;31;8903;-55
2023/07/08 11:37:38;;;;;;;;;8.50;7.75;;;;;;;;6487567;39;8946;-56
2023/07/08 11:43:51;;;;;;;;;4.50;3.50;;;;;;;;6487323;39;8965;-53
2023/07/08 11:50:19;;;;;;;;;6.50;6.00;;;;;;;;6488354;39;8825;-55
2023/07/08 11:56:24;;;;;;;;;7.00;6.50;;;;;;;;6487178;47;8939;-53
2023/07/08 12:02:46;;;;;;;;;7.75;6.75;;;;;;;;6486608;39;8868;-54
2023/07/08 12:08:50;;;;;;;;;5.00;5.00;;;;;;;;6488297;46;8827;-56
2023/07/08 12:15:11;;;;;;;;;7.25;6.25;;;;;;;;6490743;36;9598;-56
2023/07/08 12:21:14;;;;;;;;;5.00;4.75;;;;;;;;6490576;39;8860;-55
2023/07/08 12:27:18;;;;;;;;;7.00;6.25;;;;;;;;6489416;46;8871;-56
2023/07/08 12:33:29;;;;;;;;;5.75;5.75;;;;;;;;6489905;39;8871;-54
2023/07/08 12:39:35;;;;;;;;;5.50;5.00;;;;;;;;6489739;39;8923;-58
2023/07/08 12:45:38;;;;;;;;;5.75;5.25;;;;;;;;6489610;39;9593;-57
2023/07/08 12:51:44;;;;;;;;;6.50;6.50;;;;;;;;6490523;39;8847;-57
2023/07/08 12:57:51;;;;;;;;;6.50;6.50;;;;;;;;6490791;31;8978;-57
2023/07/08 13:04:02;;;;;;;;;8.00;8.00;;;;;;;;6489903;39;8839;-57
2023/07/08 13:10:08;;;;;;;;;4.25;4.25;;;;;;;;6489618;31;8871;-52
2023/07/08 13:16:12;;;;;;;;;6.75;6.00;;;;;;;;6488305;46;8956;-57
2023/07/08 13:22:19;;;;;;;;;5.50;5.50;;;;;;;;6489327;39;9065;-56
2023/07/08 13:28:36;;;;;;;;;8.50;7.75;;;;;;;;6492199;39;8880;-56
2023/07/08 13:34:40;;;;;;;;;8.00;8.00;;;;;;;;6492872;39;8918;-56
2023/07/08 13:40:51;;;;;;;;;4.50;4.25;;;;;;;;6492166;39;8891;-56
2023/07/08 13:46:57;;;;;;;;;6.00;6.00;;;;;;;;6492235;46;8868;-57
2023/07/08 13:53:00;;;;;;;;;6.00;6.00;;;;;;;;6492125;46;8931;-56
2023/07/08 13:59:09;;;;;;;;;6.50;6.50;;;;;;;;6491327;46;8879;-56
2023/07/08 14:05:15;;;;;;;;;7.75;7.00;;;;;;;;6537968;31;8975;-57
2023/07/08 14:11:17;;;;;;;;;8.50;7.25;;;;;;;;6489372;39;8950;-56
2023/07/08 14:17:25;;;;;;;;;6.25;6.25;;;;;;;;6491340;46;8860;-55
2023/07/08 14:23:28;;;;;;;;;6.00;6.00;;;;;;;;6491929;39;9543;-57
2023/07/08 14:29:30;;;;;;;;;8.00;6.75;;;;;;;;6491044;31;8950;-55
2023/07/08 14:35:35;;;;;;;;;6.00;6.00;;;;;;;;6491889;39;8895;-53
2023/07/08 14:41:39;;;;;;;;;10.25;9.00;;;;;;;;6491744;39;8942;-57
2023/07/08 14:47:59;;;;;;;;;9.25;7.00;;;;;;;;6491393;39;8875;-56
2023/07/08 14:54:01;;;;;;;;;6.75;6.50;;;;;;;;6490100;39;8907;-57
2023/07/08 15:00:04;;;;;;;;;9.00;7.50;;;;;;;;6489457;46;8891;-58
2023/07/08 15:06:10;;;;;;;;;6.50;6.00;;;;;;;;6491870;31;8864;-54
2023/07/08 15:12:13;;;;;;;;;7.75;7.75;;;;;;;;6491258;39;8912;-56
2023/07/08 15:18:17;;;;;;;;;7.00;7.00;;;;;;;;6490965;39;8820;-56
2023/07/08 15:24:24;;;;;;;;;6.25;6.25;;;;;;;;6491001;39;9575;-56
2023/07/08 15:30:28;;;;;;;;;7.50;7.50;;;;;;;;6490520;39;8978;-56
2023/07/08 15:36:30;;;;;;;;;12.00;10.00;;;;;;;;6491157;39;8939;-56
2023/07/08 15:42:40;;;;;;;;;8.00;8.00;;;;;;;;6490660;39;8946;-57
2023/07/08 15:48:46;;;;;;;;;10.75;10.75;;;;;;;;6492239;39;8832;-57
2023/07/08 15:54:49;;;;;;;;;9.50;9.25;;;;;;;;6492226;39;8938;-53
2023/07/08 16:00:53;;;;;;;;;7.00;7.00;;;;;;;;6493297;39;8986;-55
2023/07/08 16:06:55;;;;;;;;;8.25;7.75;;;;;;;;6492414;39;8856;-56
2023/07/08 16:12:59;;;;;;;;;10.00;9.00;;;;;;;;6492683;39;8899;-54
2023/07/08 16:19:02;;;;;;;;;7.50;6.25;;;;;;;;6492444;39;8904;-57
2023/07/08 16:25:05;;;;;;;;;9.00;9.00;;;;;;;;6492074;39;8954;-56
2023/07/08 16:31:18;;;;;;;;;10.00;8.00;;;;;;;;6492460;31;8906;-56
2023/07/08 16:37:24;;;;;;;;;6.75;6.75;;;;;;;;6493490;39;9026;-56
2023/07/08 16:43:31;;;;;;;;;10.50;9.50;;;;;;;;6492648;39;9722;-56
2023/07/08 16:49:37;;;;;;;;;9.50;9.25;;;;;;;;6492890;46;8812;-57
2023/07/08 16:55:42;;;;;;;;;9.00;7.50;;;;;;;;6492114;46;8947;-56
2023/07/08 17:01:46;;;;;;;;;7.25;7.25;;;;;;;;6492353;39;8872;-55
2023/07/08 17:07:49;;;;;;;;;6.50;6.25;;;;;;;;6494015;39;9730;-55
2023/07/08 17:13:53;;;;;;;;;10.00;10.00;;;;;;;;6493259;31;9013;-56
2023/07/08 17:20:04;;;;;;;;;6.50;6.50;;;;;;;;6492367;46;8848;-55
2023/07/08 17:26:08;;;;;;;;;6.25;6.25;;;;;;;;6492573;39;8918;-55
2023/07/08 17:32:12;;;;;;;;;9.25;9.25;;;;;;;;6491267;46;8891;-58
2023/07/08 17:38:21;;;;;;;;;12.00;11.00;;;;;;;;6493143;39;8884;-54
2023/07/08 17:44:24;;;;;;;;;10.00;8.75;;;;;;;;6491085;39;8855;-55
2023/07/08 17:50:27;;;;;;;;;10.00;10.00;;;;;;;;6492827;39;8902;-55
2023/07/08 17:56:43;;;;;;;;;10.75;10.25;;;;;;;;6492445;31;8974;-55
2023/07/08 18:02:47;;;;;;;;;11.00;10.00;;;;;;;;6491283;46;8876;-56
2023/07/08 18:08:51;;;;;;;;;9.25;9.25;;;;;;;;6492267;39;8903;-54
2023/07/08 18:14:53;;;;;;;;;12.00;10.00;;;;;;;;6491377;46;8924;-54
2023/07/08 18:20:58;;;;;;;;;8.00;8.00;;;;;;;;6490464;39;8824;-56
2023/07/08 18:27:03;;;;;;;;;8.75;8.50;;;;;;;;6491782;31;8907;-56
2023/07/08 18:33:13;;;;;;;;;16.25;16.25;;;;;;;;6490502;39;8935;-55
2023/07/08 18:39:17;;;;;;;;;16.00;14.75;;;;;;;;6489838;39;8924;-57
2023/07/08 18:45:21;;;;;;;;;9.75;7.75;;;;;;;;6489278;39;9851;-54
2023/07/08 18:51:41;;;;;;;;;22.67;20.00;;;;;;;;6490278;46;8881;-55
2023/07/08 18:57:44;;;;;;;;;21.50;21.25;;;;;;;;6489189;39;8927;-57
2023/07/08 19:03:51;;;;;;;;;18.25;18.25;;;;;;;;6490498;39;9523;-57
2023/07/08 19:09:54;;;;;;;;;16.33;16.00;;;;;;;;6489881;39;9051;-56
2023/07/08 19:15:58;;;;;;;;;34.67;31.33;;;;;;;;6489820;47;8954;-56
2023/07/08 19:22:02;;;;;;;;;13.50;11.75;;;;;;;;6491126;46;8923;-55
2023/07/08 19:28:06;;;;;;;;;10.00;9.00;;;;;;;;6491328;39;8832;-57
2023/07/08 19:34:12;;;;;;;;;5.50;5.50;;;;;;;;6493153;39;9591;-55
2023/07/08 19:40:17;;;;;;;;;11.00;9.25;;;;;;;;6490186;39;9034;-55
2023/07/08 19:46:20;;;;;;;;;9.00;7.75;;;;;;;;6492285;39;8888;-55
2023/07/08 19:52:22;;;;;;;;;7.25;7.25;;;;;;;;6491664;39;8844;-55
2023/07/08 19:58:25;;;;;;;;;9.00;9.00;;;;;;;;6492155;39;8895;-56
2023/07/08 20:04:28;;;;;;;;;13.50;12.00;;;;;;;;6491880;39;8884;-57
2023/07/08 20:10:30;;;;;;;;;12.50;11.00;;;;;;;;6491117;39;8888;-56
2023/07/08 20:16:33;;;;;;;;;10.00;10.00;;;;;;;;6491390;39;9076;-57
2023/07/08 20:22:37;;;;;;;;;9.50;9.50;;;;;;;;6489314;39;9535;-57
2023/07/08 20:28:45;;;;;;;;;11.00;11.00;;;;;;;;6492331;39;8847;-56
2023/07/08 20:34:48;;;;;;;;;10.33;10.33;;;;;;;;6491701;39;8986;-55
2023/07/08 20:40:51;;;;;;;;;10.25;9.50;;;;;;;;6491343;39;8832;-56
2023/07/08 20:46:55;;;;;;;;;9.75;9.75;;;;;;;;6490910;39;8837;-56
2023/07/08 20:53:01;;;;;;;;;15.50;14.50;;;;;;;;6490351;46;8891;-53
2023/07/08 20:59:14;;;;;;;;;14.67;14.00;;;;;;;;6490652;39;8966;-56
2023/07/08 21:05:18;;;;;;;;;15.50;15.50;;;;;;;;6491728;31;8922;-51
2023/07/08 21:11:21;;;;;;;;;12.75;12.25;;;;;;;;6488445;39;8856;-54
2023/07/08 21:17:27;;;;;;;;;13.33;12.33;;;;;;;;6491230;46;8844;-53
2023/07/08 21:23:31;;;;;;;;;13.75;12.75;;;;;;;;6489971;39;8859;-54
2023/07/08 21:29:34;;;;;;;;;13.67;13.67;;;;;;;;6490269;39;8915;-51
2023/07/08 21:35:41;;;;;;;;;12.00;9.50;;;;;;;;6492117;31;9026;-57
2023/07/08 21:41:45;;;;;;;;;11.50;9.25;;;;;;;;6490174;46;8847;-55
2023/07/08 21:47:48;;;;;;;;;11.75;11.75;;;;;;;;6491515;39;9614;-56
2023/07/08 21:53:56;;;;;;;;;15.50;12.75;;;;;;;;6489943;39;8918;-56
2023/07/08 22:00:00;;;;;;;;;14.50;13.50;;;;;;;;6491261;39;8934;-55
2023/07/08 22:06:05;;;;;;;;;8.75;8.75;;;;;;;;6490936;31;8879;-58
2023/07/08 22:12:12;;;;;;;;;13.00;12.00;;;;;;;;6489868;31;9026;-57
2023/07/08 22:18:21;;;;;;;;;12.00;10.33;;;;;;;;6309727;36;10000826;-54
2023/07/08 22:24:24;;;;;;;;;13.25;11.75;;;;;;;;6490436;31;8877;-54
2023/07/08 22:30:27;;;;;;;;;13.67;13.00;;;;;;;;6490870;39;8903;-55
2023/07/08 22:36:29;;;;;;;;;12.25;11.75;;;;;;;;6490930;39;8997;-55
2023/07/08 22:42:31;;;;;;;;;17.67;15.33;;;;;;;;6490184;46;8910;-53
2023/07/08 22:48:33;;;;;;;;;12.00;12.00;;;;;;;;6490064;39;8965;-55
2023/07/08 22:54:38;;;;;;;;;15.00;13.33;;;;;;;;6489432;39;8978;-56
2023/07/08 23:00:41;;;;;;;;;14.33;13.67;;;;;;;;6489944;46;8812;-57
2023/07/08 23:06:44;;;;;;;;;16.00;15.33;;;;;;;;6490261;31;8887;-54
2023/07/08 23:12:48;;;;;;;;;15.00;13.67;;;;;;;;6488902;47;8931;-56
2023/07/08 23:18:55;;;;;;;;;15.67;14.33;;;;;;;;6490389;31;9485;-54
2023/07/08 23:24:57;;;;;;;;;11.67;11.67;;;;;;;;6490153;31;8880;-53
2023/07/08 23:30:59;;;;;;;;;19.33;15.67;;;;;;;;6490584;39;8963;-54
2023/07/08 23:37:02;;;;;;;;;15.00;14.67;;;;;;;;6490273;39;8966;-52
2023/07/08 23:43:05;;;;;;;;;16.33;15.33;;;;;;;;6490131;39;9065;-52
2023/07/08 23:49:31;;;;;;;;;18.67;17.67;;;;;;;;6490246;39;9010;-56
2023/07/08 23:55:34;;;;;;;;;18.33;18.33;;;;;;;;6490080;31;8872;-55
